createdAt,value
2023-04-27T00:00:56.394Z,18.27
2023-04-27T00:03:28.555Z,18.25
2023-04-27T00:06:00.248Z,18.25
2023-04-27T00:08:32.179Z,18.25
2023-04-27T00:11:03.545Z,18.25
2023-04-27T00:13:34.990Z,18.25
2023-04-27T00:16:06.897Z,18.24
2023-04-27T00:18:38.378Z,18.23
2023-04-27T00:21:09.837Z,18.22
2023-04-27T00:23:41.558Z,18.22
2023-04-27T00:26:13.046Z,18.22
2023-04-27T00:28:45.318Z,18.21
2023-04-27T00:31:16.568Z,18.21
2023-04-27T00:33:48.515Z,18.19
2023-04-27T00:36:21.143Z,18.19
2023-04-27T00:38:52.553Z,18.19
2023-04-27T00:41:25.040Z,18.20
2023-04-27T00:43:56.403Z,18.21
2023-04-27T00:46:28.348Z,18.21
2023-04-27T00:49:00.275Z,18.21
2023-04-27T00:51:32.260Z,18.21
2023-04-27T00:54:03.996Z,18.21
2023-04-27T00:56:35.409Z,18.22
2023-04-27T00:59:06.694Z,18.21
2023-04-27T01:01:38.427Z,18.21
2023-04-27T01:04:10.462Z,18.21
2023-04-27T01:06:41.970Z,18.22
2023-04-27T01:09:14.405Z,18.23
2023-04-27T01:11:45.911Z,18.23
2023-04-27T01:14:17.383Z,18.25
2023-04-27T01:16:49.117Z,18.25
2023-04-27T01:19:20.830Z,18.26
2023-04-27T01:21:52.200Z,18.25
2023-04-27T01:24:24.114Z,18.26
2023-04-27T01:26:55.872Z,18.26
2023-04-27T01:29:27.502Z,18.26
2023-04-27T01:31:58.677Z,18.26
2023-04-27T01:34:30.117Z,18.26
2023-04-27T01:37:01.321Z,18.27
2023-04-27T01:39:32.712Z,18.26
2023-04-27T01:42:05.387Z,18.25
2023-04-27T01:44:36.951Z,18.23
2023-04-27T01:47:08.301Z,18.22
2023-04-27T01:49:39.327Z,18.20
2023-04-27T01:52:10.792Z,18.19
2023-04-27T01:54:42.544Z,18.19
2023-04-27T01:57:15.656Z,18.18
2023-04-27T01:59:49.435Z,18.18
2023-04-27T02:02:20.992Z,18.19
2023-04-27T02:04:52.389Z,18.19
2023-04-27T02:07:23.897Z,18.19
2023-04-27T02:09:54.958Z,18.19
2023-04-27T02:12:26.554Z,18.19
2023-04-27T02:14:58.151Z,18.19
2023-04-27T02:17:31.444Z,18.18
2023-04-27T02:20:02.901Z,18.18
2023-04-27T02:22:34.161Z,18.18
2023-04-27T02:25:06.384Z,18.18
2023-04-27T02:27:39.930Z,18.19
2023-04-27T02:30:13.426Z,18.19
2023-04-27T02:32:48.860Z,18.18
2023-04-27T02:35:20.444Z,18.18
2023-04-27T02:37:52.196Z,18.18
2023-04-27T02:40:23.621Z,18.19
2023-04-27T02:42:54.780Z,18.19
2023-04-27T02:45:26.656Z,18.18
2023-04-27T02:47:58.741Z,18.17
2023-04-27T02:50:30.762Z,18.15
2023-04-27T02:53:02.989Z,18.13
2023-04-27T02:55:34.518Z,18.10
2023-04-27T02:58:05.920Z,18.08
2023-04-27T03:00:37.780Z,18.04
2023-04-27T03:03:10.040Z,18.02
2023-04-27T03:05:41.849Z,17.99
2023-04-27T03:08:13.275Z,17.97
2023-04-27T03:10:44.933Z,17.96
2023-04-27T03:13:16.887Z,17.93
2023-04-27T03:15:48.451Z,17.89
2023-04-27T03:18:19.674Z,17.86
2023-04-27T03:20:51.043Z,17.84
2023-04-27T03:23:22.170Z,17.82
2023-04-27T03:25:53.625Z,17.79
2023-04-27T03:28:24.779Z,17.75
2023-04-27T03:30:56.195Z,17.73
2023-04-27T03:33:28.876Z,17.71
2023-04-27T03:36:00.469Z,17.69
2023-04-27T03:38:32.432Z,17.66
2023-04-27T03:41:03.970Z,17.62
2023-04-27T03:43:35.468Z,17.59
2023-04-27T03:46:07.356Z,17.55
2023-04-27T03:48:38.764Z,17.52
2023-04-27T03:51:11.483Z,17.50
2023-04-27T03:53:43.307Z,17.48
2023-04-27T03:56:14.315Z,17.46
2023-04-27T03:58:46.211Z,17.44
2023-04-27T04:01:22.346Z,17.43
2023-04-27T04:03:53.934Z,17.41
2023-04-27T04:06:26.217Z,17.39
2023-04-27T04:08:57.524Z,17.37
2023-04-27T04:11:29.268Z,17.34
2023-04-27T04:14:02.311Z,17.33
2023-04-27T04:16:34.482Z,17.32
2023-04-27T04:19:05.863Z,17.30
2023-04-27T04:21:37.415Z,17.29
2023-04-27T04:24:10.338Z,17.29
2023-04-27T04:26:41.780Z,17.29
2023-04-27T04:29:14.042Z,17.29
2023-04-27T04:31:45.325Z,17.29
2023-04-27T04:34:16.846Z,17.28
2023-04-27T04:36:51.818Z,17.28
2023-04-27T04:39:24.541Z,17.40
2023-04-27T04:41:55.833Z,17.61
2023-04-27T04:44:28.598Z,17.83
2023-04-27T04:47:00.115Z,18.01
2023-04-27T04:49:31.793Z,18.16
2023-04-27T04:52:04.217Z,18.29
2023-04-27T04:54:37.062Z,18.36
2023-04-27T04:57:08.806Z,18.39
2023-04-27T04:59:40.055Z,18.44
2023-04-27T05:02:11.501Z,18.50
2023-04-27T05:04:42.944Z,18.53
2023-04-27T05:07:16.085Z,18.56
2023-04-27T05:09:48.799Z,18.58
2023-04-27T05:12:20.229Z,18.59
2023-04-27T05:14:52.350Z,18.61
2023-04-27T05:17:23.487Z,18.63
2023-04-27T05:19:54.845Z,18.67
2023-04-27T05:22:26.234Z,18.72
2023-04-27T05:24:58.776Z,18.74
2023-04-27T05:27:30.195Z,18.73
2023-04-27T05:30:01.686Z,18.73
2023-04-27T05:32:33.985Z,18.79
2023-04-27T05:35:06.273Z,18.86
2023-04-27T05:37:37.770Z,18.93
2023-04-27T05:40:11.291Z,19.00
2023-04-27T05:42:42.632Z,19.08
2023-04-27T05:45:14.952Z,19.15
2023-04-27T05:47:46.425Z,19.24
2023-04-27T05:50:18.705Z,19.30
2023-04-27T05:52:50.232Z,19.33
2023-04-27T05:55:22.044Z,19.32
2023-04-27T05:58:06.662Z,19.30
2023-04-27T06:00:39.611Z,19.28
2023-04-27T06:03:11.436Z,19.28
2023-04-27T06:05:43.893Z,19.26
2023-04-27T06:08:15.624Z,19.19
2023-04-27T06:10:47.120Z,19.09
2023-04-27T06:13:18.513Z,19.05
2023-04-27T06:15:50.427Z,19.01
2023-04-27T06:18:21.866Z,18.99
2023-04-27T06:20:53.683Z,18.96
2023-04-27T06:23:25.394Z,18.93
2023-04-27T06:25:56.948Z,18.89
2023-04-27T06:28:28.424Z,18.88
2023-04-27T06:30:59.964Z,18.84
2023-04-27T06:33:31.201Z,18.81
2023-04-27T06:36:04.144Z,18.75
2023-04-27T06:38:35.807Z,18.72
2023-04-27T06:41:07.860Z,18.73
2023-04-27T06:43:39.167Z,18.73
2023-04-27T06:46:10.963Z,18.73
2023-04-27T06:48:42.754Z,18.75
2023-04-27T06:51:15.119Z,18.78
2023-04-27T06:53:46.627Z,18.80
2023-04-27T06:56:18.639Z,18.82
2023-04-27T06:58:50.213Z,18.80
2023-04-27T07:01:21.995Z,18.80
2023-04-27T07:03:53.637Z,18.81
2023-04-27T07:06:26.123Z,18.79
2023-04-27T07:08:57.709Z,18.79
2023-04-27T07:11:29.194Z,18.82
2023-04-27T07:14:00.770Z,18.89
2023-04-27T07:16:32.792Z,18.95
2023-04-27T07:19:04.575Z,19.01
2023-04-27T07:21:36.318Z,19.05
2023-04-27T07:24:08.420Z,19.08
2023-04-27T07:26:39.679Z,19.14
2023-04-27T07:31:48.169Z,19.16
2023-04-27T07:34:20.460Z,19.16
2023-04-27T07:36:54.367Z,19.15
2023-04-27T07:39:26.726Z,19.13
2023-04-27T07:41:58.449Z,19.05
2023-04-27T07:44:30.427Z,18.97
2023-04-27T07:47:05.003Z,18.90
2023-04-27T07:49:36.668Z,18.90
2023-04-27T07:52:08.499Z,18.95
2023-04-27T07:54:40.042Z,19.01
2023-04-27T07:57:15.055Z,19.07
2023-04-27T07:59:46.897Z,19.14
2023-04-27T08:02:20.304Z,19.17
2023-04-27T08:04:52.626Z,19.21
2023-04-27T08:07:24.197Z,19.23
2023-04-27T08:09:55.647Z,19.26
2023-04-27T08:12:27.112Z,19.30
2023-04-27T08:14:58.711Z,19.33
2023-04-27T08:17:30.377Z,19.38
2023-04-27T08:20:01.670Z,19.45
2023-04-27T08:22:33.286Z,19.53
2023-04-27T08:25:05.538Z,19.64
2023-04-27T08:27:37.750Z,19.70
2023-04-27T08:30:12.134Z,19.70
2023-04-27T08:32:43.995Z,19.69
2023-04-27T08:35:16.208Z,19.69
2023-04-27T08:37:47.988Z,19.70
2023-04-27T08:40:20.678Z,19.71
2023-04-27T08:43:00.490Z,19.76
2023-04-27T08:45:32.063Z,19.83
2023-04-27T08:48:03.456Z,19.90
2023-04-27T08:50:38.411Z,19.96
2023-04-27T08:53:19.945Z,20.06
2023-04-27T08:55:51.570Z,20.17
2023-04-27T08:58:22.923Z,20.28
2023-04-27T09:00:54.167Z,20.38
2023-04-27T09:03:28.707Z,20.47
2023-04-27T09:06:05.317Z,20.56
2023-04-27T09:08:49.091Z,20.60
2023-04-27T09:11:34.081Z,20.60
2023-04-27T09:14:18.752Z,20.63
2023-04-27T09:16:59.574Z,20.66
2023-04-27T09:19:31.986Z,20.70
2023-04-27T09:22:11.405Z,20.73
2023-04-27T09:24:53.828Z,20.75
2023-04-27T09:27:25.299Z,20.74
2023-04-27T09:29:56.584Z,20.78
2023-04-27T09:32:28.111Z,20.83
2023-04-27T09:34:59.732Z,20.89
2023-04-27T09:37:32.481Z,20.95
2023-04-27T09:40:06.020Z,21.03
2023-04-27T09:42:38.037Z,21.10
2023-04-27T09:45:11.634Z,21.15
2023-04-27T09:47:43.911Z,21.13
2023-04-27T09:50:16.573Z,21.09
2023-04-27T09:52:48.709Z,21.12
2023-04-27T09:55:26.010Z,21.19
2023-04-27T09:58:10.929Z,21.26
2023-04-27T10:00:58.487Z,21.34
2023-04-27T10:03:40.135Z,21.45
2023-04-27T10:06:53.870Z,21.55
2023-04-27T10:09:27.131Z,21.59
2023-04-27T10:11:58.779Z,21.62
2023-04-27T10:14:31.356Z,21.71
2023-04-27T10:17:12.145Z,21.79
2023-04-27T10:19:57.314Z,21.85
2023-04-27T10:22:40.787Z,21.87
2023-04-27T10:25:21.732Z,21.91
2023-04-27T10:27:54.933Z,21.98
2023-04-27T10:30:28.112Z,22.03
2023-04-27T10:33:01.216Z,22.09
2023-04-27T10:35:43.367Z,22.16
2023-04-27T10:38:19.862Z,22.24
2023-04-27T10:40:57.681Z,22.30
2023-04-27T10:43:31.154Z,22.37
2023-04-27T10:46:13.694Z,22.42
2023-04-27T10:48:46.105Z,22.45
2023-04-27T10:51:19.789Z,22.50
2023-04-27T10:53:55.390Z,22.52
2023-04-27T10:56:27.344Z,22.48
2023-04-27T10:59:03.536Z,22.43
2023-04-27T11:01:35.321Z,22.34
2023-04-27T11:04:07.265Z,22.26
2023-04-27T11:06:45.980Z,22.15
2023-04-27T11:09:28.892Z,22.09
2023-04-27T11:12:00.131Z,22.01
2023-04-27T11:14:32.206Z,22.02
2023-04-27T11:17:04.400Z,22.00
2023-04-27T11:19:45.527Z,21.98
2023-04-27T11:22:18.244Z,21.94
2023-04-27T11:24:54.559Z,21.85
2023-04-27T11:27:37.491Z,21.88
2023-04-27T11:30:20.278Z,21.96
2023-04-27T11:32:53.802Z,22.00
2023-04-27T11:35:35.450Z,22.02
2023-04-27T11:38:06.846Z,21.97
2023-04-27T11:40:41.185Z,21.94
2023-04-27T11:43:15.733Z,21.93
2023-04-27T11:45:47.520Z,21.94
2023-04-27T11:48:19.179Z,22.01
2023-04-27T11:50:51.630Z,22.08
2023-04-27T11:53:33.354Z,22.11
2023-04-27T11:56:08.475Z,22.15
2023-04-27T11:58:40.982Z,22.14
2023-04-27T12:01:13.362Z,22.19
2023-04-27T12:03:44.821Z,22.23
2023-04-27T12:06:32.266Z,22.25
2023-04-27T12:09:05.464Z,22.31
2023-04-27T12:11:36.951Z,22.38
2023-04-27T12:14:08.878Z,22.44
2023-04-27T12:16:40.306Z,22.51
2023-04-27T12:19:11.680Z,22.56
2023-04-27T12:21:44.122Z,22.62
2023-04-27T12:24:16.459Z,22.60
2023-04-27T12:26:48.064Z,22.54
2023-04-27T12:29:19.403Z,22.46
2023-04-27T12:31:51.379Z,22.39
2023-04-27T12:34:22.826Z,22.26
2023-04-27T12:36:54.486Z,22.16
2023-04-27T12:39:26.888Z,21.99
2023-04-27T12:41:58.707Z,21.82
2023-04-27T12:44:30.354Z,21.63
2023-04-27T12:47:01.713Z,21.56
2023-04-27T12:49:33.354Z,21.52
2023-04-27T12:52:04.864Z,21.46
2023-04-27T12:54:36.712Z,21.43
2023-04-27T12:57:08.278Z,21.38
2023-04-27T12:59:39.726Z,21.30
2023-04-27T13:02:11.838Z,21.26
2023-04-27T13:04:43.461Z,21.26
2023-04-27T13:07:15.182Z,21.27
2023-04-27T13:09:46.921Z,21.28
2023-04-27T13:12:19.056Z,21.31
2023-04-27T13:14:51.747Z,21.33
2023-04-27T13:17:22.865Z,21.35
2023-04-27T13:19:54.100Z,21.34
2023-04-27T13:22:25.380Z,21.34
2023-04-27T13:24:56.729Z,21.26
2023-04-27T13:27:28.641Z,21.18
2023-04-27T13:30:00.008Z,21.11
2023-04-27T13:32:31.726Z,21.05
2023-04-27T13:35:03.836Z,20.97
2023-04-27T13:37:35.501Z,20.90
2023-04-27T13:40:10.010Z,20.84
2023-04-27T13:42:41.789Z,20.78
2023-04-27T13:45:13.871Z,20.72
2023-04-27T13:47:45.287Z,20.66
2023-04-27T13:50:16.738Z,20.66
2023-04-27T13:52:48.251Z,20.65
2023-04-27T13:55:19.701Z,20.62
2023-04-27T13:57:51.370Z,20.60
2023-04-27T14:00:24.009Z,20.61
2023-04-27T14:02:55.629Z,20.64
2023-04-27T14:05:27.176Z,20.65
2023-04-27T14:07:58.398Z,20.66
2023-04-27T14:10:29.853Z,20.68
2023-04-27T14:13:01.771Z,20.67
2023-04-27T14:15:37.169Z,20.67
2023-04-27T14:18:11.205Z,20.65
2023-04-27T14:20:43.062Z,20.63
2023-04-27T14:23:14.379Z,20.62
2023-04-27T14:25:46.253Z,20.61
2023-04-27T14:28:17.491Z,20.60
2023-04-27T14:30:49.328Z,20.58
2023-04-27T14:33:21.182Z,20.56
2023-04-27T14:35:52.835Z,20.56
2023-04-27T14:38:25.525Z,20.55
2023-04-27T14:40:57.398Z,20.53
2023-04-27T14:43:28.815Z,20.52
2023-04-27T14:46:11.914Z,20.49
2023-04-27T14:48:52.563Z,20.43
2023-04-27T14:51:24.074Z,20.40
2023-04-27T14:53:55.920Z,20.39
2023-04-27T14:56:27.807Z,20.38
2023-04-27T14:58:59.131Z,20.37
2023-04-27T15:01:30.876Z,20.38
2023-04-27T15:04:02.569Z,20.40
2023-04-27T15:06:34.036Z,20.42
2023-04-27T15:09:05.836Z,20.44
2023-04-27T15:11:39.057Z,20.46
2023-04-27T15:14:10.557Z,20.47
2023-04-27T15:16:42.065Z,20.48
2023-04-27T15:19:13.745Z,20.49
2023-04-27T15:21:45.616Z,20.48
2023-04-27T15:24:17.020Z,20.46
2023-04-27T15:26:49.393Z,20.43
2023-04-27T15:29:21.490Z,20.43
2023-04-27T15:31:53.481Z,20.43
2023-04-27T15:34:25.752Z,20.41
2023-04-27T15:36:57.272Z,20.39
2023-04-27T15:39:28.833Z,20.36
2023-04-27T15:42:01.624Z,20.34
2023-04-27T15:44:33.226Z,20.33
2023-04-27T15:47:04.865Z,20.32
2023-04-27T15:49:45.740Z,20.30
2023-04-27T15:52:25.959Z,20.28
2023-04-27T15:54:57.556Z,20.26
2023-04-27T15:57:29.064Z,20.27
2023-04-27T16:00:00.424Z,20.25
2023-04-27T16:02:32.357Z,20.23
2023-04-27T16:05:05.618Z,20.22
2023-04-27T16:07:38.350Z,20.20
2023-04-27T16:10:13.004Z,20.21
2023-04-27T16:12:44.314Z,20.22
2023-04-27T16:15:16.454Z,20.21
2023-04-27T16:17:48.714Z,20.17
2023-04-27T16:20:21.327Z,20.15
2023-04-27T16:22:53.008Z,20.15
2023-04-27T16:25:24.792Z,20.16
2023-04-27T16:27:56.192Z,20.15
2023-04-27T16:30:28.288Z,20.16
2023-04-27T16:32:59.585Z,20.16
2023-04-27T16:35:33.919Z,20.17
2023-04-27T16:38:06.569Z,20.16
2023-04-27T16:40:39.250Z,20.19
2023-04-27T16:43:10.930Z,20.20
2023-04-27T16:45:42.979Z,20.21
2023-04-27T16:48:14.880Z,20.22
2023-04-27T16:50:46.243Z,20.22
2023-04-27T16:53:21.192Z,20.19
2023-04-27T16:55:52.826Z,20.16
2023-04-27T16:58:24.408Z,20.15
2023-04-27T17:00:55.718Z,20.14
2023-04-27T17:03:27.828Z,20.14
2023-04-27T17:05:59.828Z,20.15
2023-04-27T17:08:31.204Z,20.14
2023-04-27T17:11:02.468Z,20.11
2023-04-27T17:13:34.023Z,20.09
2023-04-27T17:16:05.586Z,20.07
2023-04-27T17:18:36.885Z,20.05
2023-04-27T17:21:08.578Z,20.01
2023-04-27T17:23:41.602Z,19.97
2023-04-27T17:26:12.914Z,19.96
2023-04-27T17:28:44.553Z,19.96
2023-04-27T17:31:16.849Z,19.94
2023-04-27T17:33:49.660Z,19.90
2023-04-27T17:36:21.266Z,19.88
2023-04-27T17:38:52.470Z,19.86
2023-04-27T17:41:23.971Z,19.86
2023-04-27T17:43:55.196Z,19.86
2023-04-27T17:46:26.480Z,19.83
2023-04-27T17:48:57.743Z,19.81
2023-04-27T17:51:28.897Z,19.82
2023-04-27T17:54:00.364Z,19.87
2023-04-27T17:56:32.007Z,19.91
2023-04-27T17:59:03.459Z,19.94
2023-04-27T18:01:35.115Z,19.99
2023-04-27T18:04:07.534Z,20.04
2023-04-27T18:06:39.204Z,20.08
2023-04-27T18:09:11.130Z,20.08
2023-04-27T18:11:42.506Z,20.06
2023-04-27T18:14:14.375Z,20.06
2023-04-27T18:16:45.979Z,20.01
2023-04-27T18:19:17.692Z,19.94
2023-04-27T18:21:49.897Z,19.92
2023-04-27T18:24:21.071Z,19.94
2023-04-27T18:26:52.762Z,19.96
2023-04-27T18:29:24.287Z,19.95
2023-04-27T18:31:57.134Z,19.96
2023-04-27T18:34:28.556Z,19.94
2023-04-27T18:37:01.534Z,19.92
2023-04-27T18:39:33.182Z,19.88
2023-04-27T18:42:04.636Z,19.84
2023-04-27T18:44:36.612Z,19.86
2023-04-27T18:47:08.081Z,19.91
2023-04-27T18:49:39.405Z,19.88
2023-04-27T18:52:11.708Z,19.82
2023-04-27T18:54:43.453Z,19.80
2023-04-27T18:57:15.406Z,19.79
2023-04-27T18:59:47.046Z,19.81
2023-04-27T19:02:18.327Z,19.84
2023-04-27T19:05:01.693Z,19.87
2023-04-27T19:07:40.816Z,19.87
2023-04-27T19:10:13.405Z,19.88
2023-04-27T19:12:44.587Z,19.90
2023-04-27T19:15:17.100Z,19.91
2023-04-27T19:17:52.834Z,19.92
2023-04-27T19:20:33.690Z,19.99
2023-04-27T19:23:05.421Z,20.04
2023-04-27T19:25:37.370Z,20.08
2023-04-27T19:28:09.636Z,20.11
2023-04-27T19:30:41.632Z,20.13
2023-04-27T19:33:13.238Z,20.16
2023-04-27T19:35:44.982Z,20.26
2023-04-27T19:38:16.638Z,20.36
2023-04-27T19:40:48.403Z,20.45
2023-04-27T19:43:19.554Z,20.41
2023-04-27T19:45:51.226Z,20.30
2023-04-27T19:48:22.914Z,20.19
2023-04-27T19:50:54.963Z,20.08
2023-04-27T19:53:26.316Z,19.99
2023-04-27T19:56:00.090Z,19.93
2023-04-27T19:58:32.005Z,19.87
2023-04-27T20:01:04.100Z,19.79
2023-04-27T20:03:38.038Z,19.73
2023-04-27T20:06:10.458Z,19.68
2023-04-27T20:08:41.896Z,19.64
2023-04-27T20:11:12.916Z,19.60
2023-04-27T20:13:44.060Z,19.57
2023-04-27T20:16:15.161Z,19.52
2023-04-27T20:18:46.918Z,19.49
2023-04-27T20:21:18.283Z,19.48
2023-04-27T20:23:52.278Z,19.47
2023-04-27T20:26:24.747Z,19.48
2023-04-27T20:28:56.176Z,19.45
2023-04-27T20:31:27.537Z,19.46
2023-04-27T20:33:59.249Z,19.51
2023-04-27T20:36:32.221Z,19.50
2023-04-27T20:39:06.355Z,19.50
2023-04-27T20:41:38.611Z,19.52
2023-04-27T20:44:10.413Z,19.48
2023-04-27T20:46:41.895Z,19.42
2023-04-27T20:49:13.611Z,19.36
2023-04-27T20:51:48.303Z,19.29
2023-04-27T20:54:19.592Z,19.24
2023-04-27T20:56:50.840Z,19.24
2023-04-27T20:59:22.643Z,19.22
2023-04-27T21:01:54.164Z,19.18
2023-04-27T21:04:25.487Z,19.14
2023-04-27T21:06:57.100Z,19.11
2023-04-27T21:09:28.488Z,19.10
2023-04-27T21:11:59.954Z,19.07
2023-04-27T21:14:31.747Z,19.03
2023-04-27T21:17:03.224Z,19.00
2023-04-27T21:19:34.607Z,18.95
2023-04-27T21:22:05.980Z,18.92
2023-04-27T21:24:37.576Z,18.88
2023-04-27T21:27:09.008Z,18.85
2023-04-27T21:29:40.919Z,18.83
2023-04-27T21:32:12.397Z,18.80
2023-04-27T21:34:44.255Z,18.76
2023-04-27T21:37:27.616Z,18.73
2023-04-27T21:39:58.814Z,18.70
2023-04-27T21:42:30.627Z,18.69
2023-04-27T21:45:03.074Z,18.68
2023-04-27T21:47:34.671Z,18.67
2023-04-27T21:50:07.628Z,18.66
2023-04-27T21:52:39.077Z,18.66
2023-04-27T21:55:11.305Z,18.65
2023-04-27T21:57:42.590Z,18.65
2023-04-27T22:00:17.215Z,18.64
2023-04-27T22:02:51.610Z,18.62
2023-04-27T22:05:23.749Z,18.61
2023-04-27T22:07:55.650Z,18.58
2023-04-27T22:10:27.258Z,18.54
2023-04-27T22:13:02.414Z,18.52
2023-04-27T22:15:37.246Z,18.51
2023-04-27T22:18:09.062Z,18.48
2023-04-27T22:20:40.577Z,18.47
2023-04-27T22:23:12.145Z,18.44
2023-04-27T22:25:43.837Z,18.43
2023-04-27T22:28:15.106Z,18.42
2023-04-27T22:30:46.635Z,18.40
2023-04-27T22:33:18.475Z,18.39
2023-04-27T22:35:50.621Z,18.37
2023-04-27T22:38:22.199Z,18.36
2023-04-27T22:40:53.509Z,18.35
2023-04-27T22:43:24.852Z,18.33
2023-04-27T22:45:56.344Z,18.30
2023-04-27T22:48:27.581Z,18.29
2023-04-27T22:50:59.027Z,18.28
2023-04-27T22:53:30.283Z,18.28
2023-04-27T22:56:01.374Z,18.28
2023-04-27T22:58:32.694Z,18.26
2023-04-27T23:01:04.451Z,18.25
2023-04-27T23:03:36.290Z,18.23
2023-04-27T23:06:08.764Z,18.22
2023-04-27T23:08:42.667Z,18.21
2023-04-27T23:11:15.593Z,18.20
2023-04-27T23:13:48.339Z,18.18
2023-04-27T23:16:19.489Z,18.18
2023-04-27T23:18:51.367Z,18.17
2023-04-27T23:21:22.751Z,18.16
2023-04-27T23:23:54.124Z,18.15
2023-04-27T23:26:25.567Z,18.13
2023-04-27T23:28:57.058Z,18.11
2023-04-27T23:31:28.558Z,18.09
2023-04-27T23:33:59.953Z,18.06
2023-04-27T23:36:34.304Z,18.05
2023-04-27T23:39:05.739Z,18.03
2023-04-27T23:41:37.469Z,18.01
2023-04-27T23:44:09.061Z,18.02
2023-04-27T23:46:40.488Z,18.02
2023-04-27T23:49:12.204Z,18.02
2023-04-27T23:51:43.689Z,18.03
2023-04-27T23:54:16.052Z,18.03
2023-04-27T23:56:47.524Z,18.02
2023-04-27T23:59:20.499Z,18.02
